sensor_id;sensor_type;location;lat;lon;timestamp;pressure;altitude;pressure_sealevel;temperature;humidity
56400;BME280;42298;53.638;9.876;2022-12-07T00:00:18;100969.59;;;7.11;72.60
56400;BME280;42298;53.638;9.876;2022-12-07T00:02:43;100961.97;;;7.03;72.18
56400;BME280;42298;53.638;9.876;2022-12-07T00:05:09;100958.97;;;6.99;73.06
56400;BME280;42298;53.638;9.876;2022-12-07T00:07:34;100952.13;;;6.97;73.29
56400;BME280;42298;53.638;9.876;2022-12-07T00:10:01;100951.00;;;7.03;73.14
56400;BME280;42298;53.638;9.876;2022-12-07T00:12:26;100923.44;;;6.84;72.47
56400;BME280;42298;53.638;9.876;2022-12-07T00:14:51;100952.72;;;6.89;73.16
56400;BME280;42298;53.638;9.876;2022-12-07T00:17:17;100961.47;;;6.96;73.28
56400;BME280;42298;53.638;9.876;2022-12-07T00:19:42;100951.31;;;6.96;73.43
56400;BME280;42298;53.638;9.876;2022-12-07T00:22:08;100943.94;;;6.97;73.38
56400;BME280;42298;53.638;9.876;2022-12-07T00:24:33;100943.38;;;6.95;73.46
56400;BME280;42298;53.638;9.876;2022-12-07T00:26:58;100939.00;;;6.99;73.47
56400;BME280;42298;53.638;9.876;2022-12-07T00:29:24;100897.25;;;6.73;73.66
56400;BME280;42298;53.638;9.876;2022-12-07T00:31:49;100922.59;;;6.94;72.99
56400;BME280;42298;53.638;9.876;2022-12-07T00:34:18;100919.94;;;6.74;73.15
56400;BME280;42298;53.638;9.876;2022-12-07T00:36:43;100905.97;;;6.75;73.34
56400;BME280;42298;53.638;9.876;2022-12-07T00:39:08;100915.28;;;6.74;73.60
56400;BME280;42298;53.638;9.876;2022-12-07T00:41:34;100948.06;;;6.94;73.50
56400;BME280;42298;53.638;9.876;2022-12-07T00:43:59;100903.22;;;6.75;73.00
56400;BME280;42298;53.638;9.876;2022-12-07T00:46:25;100930.25;;;6.97;73.35
56400;BME280;42298;53.638;9.876;2022-12-07T00:48:52;100932.13;;;7.01;73.04
56400;BME280;42298;53.638;9.876;2022-12-07T00:51:20;100931.84;;;7.03;73.16
56400;BME280;42298;53.638;9.876;2022-12-07T00:53:46;100900.19;;;6.87;73.41
56400;BME280;42298;53.638;9.876;2022-12-07T00:56:14;100920.63;;;7.04;73.38
56400;BME280;42298;53.638;9.876;2022-12-07T00:58:40;100915.97;;;7.05;73.61
56400;BME280;42298;53.638;9.876;2022-12-07T01:01:07;100916.47;;;7.07;73.32
56400;BME280;42298;53.638;9.876;2022-12-07T01:03:33;100880.22;;;6.81;73.37
56400;BME280;42298;53.638;9.876;2022-12-07T01:05:58;100904.50;;;6.98;73.55
56400;BME280;42298;53.638;9.876;2022-12-07T01:08:25;100891.44;;;6.85;73.43
56400;BME280;42298;53.638;9.876;2022-12-07T01:11:05;100907.28;;;6.93;73.59
56400;BME280;42298;53.638;9.876;2022-12-07T01:13:32;100905.38;;;6.88;73.97
56400;BME280;42298;53.638;9.876;2022-12-07T01:16:02;100894.94;;;6.90;73.78
56400;BME280;42298;53.638;9.876;2022-12-07T01:18:29;100856.50;;;6.62;73.44
56400;BME280;42298;53.638;9.876;2022-12-07T01:21:03;100894.16;;;6.85;73.06
56400;BME280;42298;53.638;9.876;2022-12-07T01:23:29;100897.19;;;6.78;73.14
56400;BME280;42298;53.638;9.876;2022-12-07T01:26:00;100872.91;;;6.62;73.15
56400;BME280;42298;53.638;9.876;2022-12-07T01:28:26;100902.16;;;6.71;73.53
56400;BME280;42298;53.638;9.876;2022-12-07T01:30:57;100900.50;;;6.75;73.46
56400;BME280;42298;53.638;9.876;2022-12-07T01:33:22;100874.31;;;6.59;73.27
56400;BME280;42298;53.638;9.876;2022-12-07T01:35:48;100845.09;;;6.40;73.35
56400;BME280;42298;53.638;9.876;2022-12-07T01:38:13;100893.41;;;6.69;73.55
56400;BME280;42298;53.638;9.876;2022-12-07T01:40:38;100872.13;;;6.51;73.07
56400;BME280;42298;53.638;9.876;2022-12-07T01:43:13;100840.22;;;6.32;73.15
56400;BME280;42298;53.638;9.876;2022-12-07T01:45:41;100881.16;;;6.52;73.27
56400;BME280;42298;53.638;9.876;2022-12-07T01:48:09;100888.81;;;6.50;73.27
56400;BME280;42298;53.638;9.876;2022-12-07T01:50:36;100847.66;;;6.16;73.44
56400;BME280;42298;53.638;9.876;2022-12-07T01:53:03;100878.81;;;6.25;73.23
56400;BME280;42298;53.638;9.876;2022-12-07T01:55:30;100891.09;;;6.33;73.61
56400;BME280;42298;53.638;9.876;2022-12-07T01:57:56;100882.66;;;6.19;73.80
56400;BME280;42298;53.638;9.876;2022-12-07T02:00:22;100888.66;;;6.21;73.97
56400;BME280;42298;53.638;9.876;2022-12-07T02:02:49;100881.81;;;6.19;74.14
56400;BME280;42298;53.638;9.876;2022-12-07T02:05:17;100840.34;;;5.97;73.95
56400;BME280;42298;53.638;9.876;2022-12-07T02:07:43;100843.91;;;5.92;73.31
56400;BME280;42298;53.638;9.876;2022-12-07T02:10:16;100856.44;;;5.98;74.05
56400;BME280;42298;53.638;9.876;2022-12-07T02:12:44;100867.09;;;6.00;74.11
56400;BME280;42298;53.638;9.876;2022-12-07T02:15:12;100899.84;;;6.20;73.92
56400;BME280;42298;53.638;9.876;2022-12-07T02:17:55;100896.59;;;6.18;73.99
56400;BME280;42298;53.638;9.876;2022-12-07T02:20:34;100874.22;;;6.06;74.44
56400;BME280;42298;53.638;9.876;2022-12-07T02:23:29;100882.41;;;6.11;73.73
56400;BME280;42298;53.638;9.876;2022-12-07T02:26:26;100891.97;;;6.13;73.81
56400;BME280;42298;53.638;9.876;2022-12-07T02:29:11;100875.88;;;5.97;74.16
56400;BME280;42298;53.638;9.876;2022-12-07T02:31:44;100858.66;;;5.86;73.81
56400;BME280;42298;53.638;9.876;2022-12-07T02:34:50;100872.84;;;5.93;73.72
56400;BME280;42298;53.638;9.876;2022-12-07T02:42:49;100890.88;;;6.04;73.86
56400;BME280;42298;53.638;9.876;2022-12-07T02:45:18;100866.03;;;5.91;73.69
56400;BME280;42298;53.638;9.876;2022-12-07T02:47:48;100898.28;;;5.99;73.31
56400;BME280;42298;53.638;9.876;2022-12-07T02:50:18;100875.59;;;5.83;73.07
56400;BME280;42298;53.638;9.876;2022-12-07T02:52:44;100878.31;;;5.78;73.34
56400;BME280;42298;53.638;9.876;2022-12-07T02:55:10;100902.13;;;5.88;73.27
56400;BME280;42298;53.638;9.876;2022-12-07T03:00:24;100890.06;;;5.73;73.27
56400;BME280;42298;53.638;9.876;2022-12-07T03:03:03;100892.25;;;5.76;73.58
56400;BME280;42298;53.638;9.876;2022-12-07T03:08:31;100884.59;;;5.63;73.46
56400;BME280;42298;53.638;9.876;2022-12-07T03:11:03;100876.41;;;5.58;73.23
56400;BME280;42298;53.638;9.876;2022-12-07T03:13:37;100893.59;;;5.69;73.33
56400;BME280;42298;53.638;9.876;2022-12-07T03:19:08;100852.94;;;5.42;73.53
56400;BME280;42298;53.638;9.876;2022-12-07T03:21:40;100898.81;;;5.60;72.79
56400;BME280;42298;53.638;9.876;2022-12-07T03:24:10;100893.06;;;5.57;73.02
56400;BME280;42298;53.638;9.876;2022-12-07T03:26:42;100872.59;;;5.44;73.51
56400;BME280;42298;53.638;9.876;2022-12-07T03:29:14;100877.50;;;5.47;73.36
56400;BME280;42298;53.638;9.876;2022-12-07T03:31:46;100899.91;;;5.59;73.36
56400;BME280;42298;53.638;9.876;2022-12-07T03:34:44;100889.00;;;5.59;73.13
56400;BME280;42298;53.638;9.876;2022-12-07T03:37:16;100892.53;;;5.60;73.26
56400;BME280;42298;53.638;9.876;2022-12-07T03:42:38;100895.81;;;5.52;73.12
56400;BME280;42298;53.638;9.876;2022-12-07T03:45:04;100865.47;;;5.33;73.40
56400;BME280;42298;53.638;9.876;2022-12-07T03:47:34;100875.06;;;5.46;73.33
56400;BME280;42298;53.638;9.876;2022-12-07T03:50:12;100897.72;;;5.56;73.20
56400;BME280;42298;53.638;9.876;2022-12-07T03:52:52;100885.97;;;5.51;73.26
56400;BME280;42298;53.638;9.876;2022-12-07T03:55:37;100893.63;;;5.59;72.80
56400;BME280;42298;53.638;9.876;2022-12-07T03:58:07;100890.88;;;5.54;73.43
56400;BME280;42298;53.638;9.876;2022-12-07T04:00:34;100864.41;;;5.29;72.99
56400;BME280;42298;53.638;9.876;2022-12-07T04:03:00;100858.38;;;5.22;73.14
56400;BME280;42298;53.638;9.876;2022-12-07T04:05:25;100906.72;;;5.47;73.26
56400;BME280;42298;53.638;9.876;2022-12-07T04:07:51;100876.94;;;5.30;73.06
56400;BME280;42298;53.638;9.876;2022-12-07T04:10:17;100864.91;;;5.16;73.27
56400;BME280;42298;53.638;9.876;2022-12-07T04:12:42;100867.09;;;5.14;73.62
56400;BME280;42298;53.638;9.876;2022-12-07T04:15:08;100890.59;;;5.30;73.06
56400;BME280;42298;53.638;9.876;2022-12-07T04:17:34;100896.06;;;5.30;73.38
56400;BME280;42298;53.638;9.876;2022-12-07T04:19:59;100849.09;;;5.08;72.96
56400;BME280;42298;53.638;9.876;2022-12-07T04:22:24;100869.81;;;5.19;73.08
56400;BME280;42298;53.638;9.876;2022-12-07T04:24:50;100861.66;;;5.14;72.79
56400;BME280;42298;53.638;9.876;2022-12-07T04:27:15;100872.56;;;5.19;73.10
56400;BME280;42298;53.638;9.876;2022-12-07T04:29:40;100901.25;;;5.32;72.58
56400;BME280;42298;53.638;9.876;2022-12-07T04:32:06;100872.28;;;5.11;73.26
56400;BME280;42298;53.638;9.876;2022-12-07T04:34:31;100907.53;;;5.27;73.05
56400;BME280;42298;53.638;9.876;2022-12-07T04:36:56;100895.78;;;5.27;73.35
56400;BME280;42298;53.638;9.876;2022-12-07T04:39:27;100902.63;;;5.29;72.98
56400;BME280;42298;53.638;9.876;2022-12-07T04:41:54;100894.66;;;5.18;73.16
56400;BME280;42298;53.638;9.876;2022-12-07T04:44:20;100910.25;;;5.27;72.83
56400;BME280;42298;53.638;9.876;2022-12-07T04:46:46;100864.38;;;5.04;72.89
56400;BME280;42298;53.638;9.876;2022-12-07T04:49:13;100878.28;;;5.13;73.07
56400;BME280;42298;53.638;9.876;2022-12-07T04:51:38;100896.59;;;5.22;72.58
56400;BME280;42298;53.638;9.876;2022-12-07T04:54:04;100906.16;;;5.25;72.71
56400;BME280;42298;53.638;9.876;2022-12-07T04:56:30;100902.88;;;5.23;72.66
56400;BME280;42298;53.638;9.876;2022-12-07T04:58:55;100899.88;;;5.24;72.35
56400;BME280;42298;53.638;9.876;2022-12-07T05:01:22;100897.69;;;5.26;72.12
56400;BME280;42298;53.638;9.876;2022-12-07T05:03:47;100898.25;;;5.23;72.13
56400;BME280;42298;53.638;9.876;2022-12-07T05:06:13;100900.44;;;5.26;71.93
56400;BME280;42298;53.638;9.876;2022-12-07T05:08:40;100887.84;;;5.25;72.06
56400;BME280;42298;53.638;9.876;2022-12-07T05:11:06;100854.00;;;5.01;71.71
56400;BME280;42298;53.638;9.876;2022-12-07T05:13:32;100895.25;;;5.25;71.69
56400;BME280;42298;53.638;9.876;2022-12-07T05:15:58;100893.31;;;5.25;71.76
56400;BME280;42298;53.638;9.876;2022-12-07T05:18:23;100847.72;;;5.01;72.09
56400;BME280;42298;53.638;9.876;2022-12-07T05:20:49;100884.03;;;5.21;71.86
56400;BME280;42298;53.638;9.876;2022-12-07T05:23:16;100852.34;;;5.00;71.46
56400;BME280;42298;53.638;9.876;2022-12-07T05:25:41;100874.19;;;5.15;71.48
56400;BME280;42298;53.638;9.876;2022-12-07T05:28:07;100901.50;;;5.25;71.62
56400;BME280;42298;53.638;9.876;2022-12-07T05:30:32;100887.84;;;5.25;71.40
56400;BME280;42298;53.638;9.876;2022-12-07T05:32:58;100876.66;;;5.17;70.97
56400;BME280;42298;53.638;9.876;2022-12-07T05:35:23;100867.66;;;5.11;71.16
56400;BME280;42298;53.638;9.876;2022-12-07T05:37:49;100849.34;;;4.97;70.58
56400;BME280;42298;53.638;9.876;2022-12-07T05:40:15;100891.13;;;5.22;70.70
56400;BME280;42298;53.638;9.876;2022-12-07T05:42:41;100890.03;;;5.18;71.59
56400;BME280;42298;53.638;9.876;2022-12-07T05:45:08;100879.13;;;5.13;70.61
56400;BME280;42298;53.638;9.876;2022-12-07T05:47:33;100886.75;;;5.11;71.68
56400;BME280;42298;53.638;9.876;2022-12-07T05:49:58;100888.38;;;5.12;72.11
56400;BME280;42298;53.638;9.876;2022-12-07T05:52:24;100868.44;;;4.97;71.64
56400;BME280;42298;53.638;9.876;2022-12-07T05:54:49;100884.28;;;5.10;71.94
56400;BME280;42298;53.638;9.876;2022-12-07T05:57:15;100839.19;;;4.82;71.32
56400;BME280;42298;53.638;9.876;2022-12-07T05:59:40;100869.81;;;4.99;71.30
56400;BME280;42298;53.638;9.876;2022-12-07T06:02:11;100872.56;;;5.04;71.57
56400;BME280;42298;53.638;9.876;2022-12-07T06:04:42;100883.75;;;5.08;71.03
56400;BME280;42298;53.638;9.876;2022-12-07T06:07:09;100881.56;;;5.00;71.20
56400;BME280;42298;53.638;9.876;2022-12-07T06:09:35;100876.06;;;4.90;70.84
56400;BME280;42298;53.638;9.876;2022-12-07T06:12:01;100886.72;;;4.96;71.17
56400;BME280;42298;53.638;9.876;2022-12-07T06:14:45;100880.44;;;4.91;71.27
56400;BME280;42298;53.638;9.876;2022-12-07T06:17:10;100875.22;;;4.84;71.15
56400;BME280;42298;53.638;9.876;2022-12-07T06:19:36;100862.38;;;4.75;71.11
56400;BME280;42298;53.638;9.876;2022-12-07T06:22:01;100887.50;;;4.87;71.82
56400;BME280;42298;53.638;9.876;2022-12-07T06:24:27;100860.44;;;4.70;71.42
56400;BME280;42298;53.638;9.876;2022-12-07T06:26:53;100870.34;;;4.86;71.49
56400;BME280;42298;53.638;9.876;2022-12-07T06:29:19;100880.44;;;4.91;71.28
56400;BME280;42298;53.638;9.876;2022-12-07T06:31:44;100846.00;;;4.70;71.69
56400;BME280;42298;53.638;9.876;2022-12-07T06:34:13;100830.72;;;4.64;71.44
56400;BME280;42298;53.638;9.876;2022-12-07T06:36:39;100877.16;;;4.89;71.51
56400;BME280;42298;53.638;9.876;2022-12-07T06:39:05;100849.81;;;4.74;71.68
56400;BME280;42298;53.638;9.876;2022-12-07T06:41:31;100875.25;;;4.89;72.01
56400;BME280;42298;53.638;9.876;2022-12-07T06:43:57;100840.22;;;4.61;72.36
56400;BME280;42298;53.638;9.876;2022-12-07T06:46:23;100881.53;;;4.95;72.32
56400;BME280;42298;53.638;9.876;2022-12-07T06:48:48;100871.97;;;4.87;72.63
56400;BME280;42298;53.638;9.876;2022-12-07T06:51:14;100872.25;;;4.96;72.22
56400;BME280;42298;53.638;9.876;2022-12-07T06:53:39;100832.63;;;4.73;72.33
56400;BME280;42298;53.638;9.876;2022-12-07T06:56:05;100848.50;;;4.86;72.75
56400;BME280;42298;53.638;9.876;2022-12-07T06:58:30;100858.34;;;4.92;72.86
56400;BME280;42298;53.638;9.876;2022-12-07T07:00:55;100861.06;;;4.97;72.75
56400;BME280;42298;53.638;9.876;2022-12-07T07:03:21;100857.25;;;4.98;72.73
56400;BME280;42298;53.638;9.876;2022-12-07T07:05:46;100873.66;;;5.13;72.81
56400;BME280;42298;53.638;9.876;2022-12-07T07:08:12;100890.59;;;5.20;72.87
56400;BME280;42298;53.638;9.876;2022-12-07T07:10:39;100888.41;;;5.22;72.28
56400;BME280;42298;53.638;9.876;2022-12-07T07:13:04;100875.81;;;5.16;72.63
56400;BME280;42298;53.638;9.876;2022-12-07T07:15:30;100894.41;;;5.24;72.49
56400;BME280;42298;53.638;9.876;2022-12-07T07:17:55;100851.78;;;5.03;72.07
56400;BME280;42298;53.638;9.876;2022-12-07T07:20:21;100836.50;;;4.92;72.61
56400;BME280;42298;53.638;9.876;2022-12-07T07:22:47;100871.47;;;5.10;72.35
56400;BME280;42298;53.638;9.876;2022-12-07T07:25:13;100875.28;;;5.09;72.66
56400;BME280;42298;53.638;9.876;2022-12-07T07:27:38;100890.06;;;5.23;72.64
56400;BME280;42298;53.638;9.876;2022-12-07T07:30:04;100884.31;;;5.25;72.98
56400;BME280;42298;53.638;9.876;2022-12-07T07:32:30;100859.72;;;5.10;72.65
56400;BME280;42298;53.638;9.876;2022-12-07T07:34:55;100887.56;;;5.27;72.44
56400;BME280;42298;53.638;9.876;2022-12-07T07:37:20;100859.72;;;5.10;72.12
56400;BME280;42298;53.638;9.876;2022-12-07T07:39:46;100871.75;;;5.14;72.50
56400;BME280;42298;53.638;9.876;2022-12-07T07:42:11;100866.56;;;5.07;72.22
56400;BME280;42298;53.638;9.876;2022-12-07T07:44:36;100867.09;;;5.14;72.61
56400;BME280;42298;53.638;9.876;2022-12-07T07:47:03;100883.50;;;5.24;72.97
56400;BME280;42298;53.638;9.876;2022-12-07T07:49:28;100898.25;;;5.33;72.72
56400;BME280;42298;53.638;9.876;2022-12-07T07:51:54;100900.16;;;5.33;72.29
56400;BME280;42298;53.638;9.876;2022-12-07T07:54:19;100876.66;;;5.22;72.40
56400;BME280;42298;53.638;9.876;2022-12-07T07:56:44;100851.81;;;4.98;72.12
56400;BME280;42298;53.638;9.876;2022-12-07T07:59:10;100871.75;;;5.09;72.98
56400;BME280;42298;53.638;9.876;2022-12-07T08:01:35;100907.25;;;5.39;72.48
56400;BME280;42298;53.638;9.876;2022-12-07T08:04:00;100907.53;;;5.42;72.10
56400;BME280;42298;53.638;9.876;2022-12-07T08:06:26;100910.84;;;5.44;72.72
56400;BME280;42298;53.638;9.876;2022-12-07T08:08:54;100914.66;;;5.53;72.47
56400;BME280;42298;53.638;9.876;2022-12-07T08:11:28;100908.91;;;5.60;71.80
56400;BME280;42298;53.638;9.876;2022-12-07T08:13:53;100906.44;;;5.58;72.12
56400;BME280;42298;53.638;9.876;2022-12-07T08:16:19;100904.81;;;5.57;71.49
56400;BME280;42298;53.638;9.876;2022-12-07T08:18:44;100879.41;;;5.47;72.06
56400;BME280;42298;53.638;9.876;2022-12-07T08:21:12;100905.34;;;5.64;72.53
56400;BME280;42298;53.638;9.876;2022-12-07T08:23:38;100882.69;;;5.49;71.77
56400;BME280;42298;53.638;9.876;2022-12-07T08:26:09;100864.41;;;5.44;71.72
56400;BME280;42298;53.638;9.876;2022-12-07T08:28:35;100875.31;;;5.49;71.99
56400;BME280;42298;53.638;9.876;2022-12-07T08:31:01;100855.66;;;5.42;71.82
56400;BME280;42298;53.638;9.876;2022-12-07T08:33:27;100905.38;;;5.74;72.07
56400;BME280;42298;53.638;9.876;2022-12-07T08:35:52;100905.91;;;5.76;71.78
56400;BME280;42298;53.638;9.876;2022-12-07T08:38:21;100894.19;;;5.76;71.70
56400;BME280;42298;53.638;9.876;2022-12-07T08:40:57;100886.78;;;5.66;72.01
56400;BME280;42298;53.638;9.876;2022-12-07T08:43:23;100876.13;;;5.60;72.02
56400;BME280;42298;53.638;9.876;2022-12-07T08:46:17;100916.31;;;5.84;72.50
56400;BME280;42298;53.638;9.876;2022-12-07T08:48:43;100895.56;;;5.83;71.89
56400;BME280;42298;53.638;9.876;2022-12-07T08:51:09;100895.84;;;5.82;72.31
56400;BME280;42298;53.638;9.876;2022-12-07T08:53:36;100913.31;;;5.96;72.25
56400;BME280;42298;53.638;9.876;2022-12-07T08:56:03;100915.75;;;5.98;72.12
56400;BME280;42298;53.638;9.876;2022-12-07T08:58:28;100864.13;;;5.76;71.78
56400;BME280;42298;53.638;9.876;2022-12-07T09:00:54;100877.25;;;5.84;72.08
56400;BME280;42298;53.638;9.876;2022-12-07T09:03:19;100914.66;;;6.04;72.14
56400;BME280;42298;53.638;9.876;2022-12-07T09:05:44;100885.72;;;5.93;72.11
56400;BME280;42298;53.638;9.876;2022-12-07T09:08:10;100872.84;;;5.93;71.71
56400;BME280;42298;53.638;9.876;2022-12-07T09:10:35;100920.09;;;6.24;72.05
56400;BME280;42298;53.638;9.876;2022-12-07T09:13:01;100917.88;;;6.26;71.75
56400;BME280;42298;53.638;9.876;2022-12-07T09:15:28;100920.91;;;6.34;71.99
56400;BME280;42298;53.638;9.876;2022-12-07T09:17:53;100916.22;;;6.40;71.82
56400;BME280;42298;53.638;9.876;2022-12-07T09:20:19;100886.19;;;6.20;71.37
56400;BME280;42298;53.638;9.876;2022-12-07T09:22:44;100895.19;;;6.30;71.42
56400;BME280;42298;53.638;9.876;2022-12-07T09:25:10;100901.47;;;6.36;71.33
56400;BME280;42298;53.638;9.876;2022-12-07T09:27:35;100907.47;;;6.43;71.70
56400;BME280;42298;53.638;9.876;2022-12-07T09:30:00;100902.56;;;6.35;71.91
56400;BME280;42298;53.638;9.876;2022-12-07T09:32:26;100883.41;;;6.35;71.96
56400;BME280;42298;53.638;9.876;2022-12-07T09:34:51;100874.13;;;6.31;72.25
56400;BME280;42298;53.638;9.876;2022-12-07T09:37:17;100902.00;;;6.48;71.77
56400;BME280;42298;53.638;9.876;2022-12-07T09:39:42;100870.84;;;6.39;71.84
56400;BME280;42298;53.638;9.876;2022-12-07T09:42:07;100907.13;;;6.64;72.05
56400;BME280;42298;53.638;9.876;2022-12-07T09:44:34;100914.19;;;6.75;71.65
56400;BME280;42298;53.638;9.876;2022-12-07T09:47:01;100887.97;;;6.64;71.70
56400;BME280;42298;53.638;9.876;2022-12-07T09:49:29;100911.66;;;6.89;71.67
56400;BME280;42298;53.638;9.876;2022-12-07T09:52:02;100870.16;;;6.67;71.63
56400;BME280;42298;53.638;9.876;2022-12-07T09:54:28;100899.38;;;6.81;71.16
56400;BME280;42298;53.638;9.876;2022-12-07T09:56:54;100923.13;;;6.96;71.54
56400;BME280;42298;53.638;9.876;2022-12-07T09:59:20;100903.97;;;6.96;71.53
56400;BME280;42298;53.638;9.876;2022-12-07T10:01:49;100906.66;;;7.06;71.56
56400;BME280;42298;53.638;9.876;2022-12-07T10:04:19;100876.06;;;6.89;71.84
56400;BME280;42298;53.638;9.876;2022-12-07T10:06:46;100900.59;;;7.09;71.20
56400;BME280;42298;53.638;9.876;2022-12-07T10:09:14;100856.91;;;6.89;70.93
56400;BME280;42298;53.638;9.876;2022-12-07T10:12:08;100900.78;;;7.22;71.10
56400;BME280;42298;53.638;9.876;2022-12-07T10:14:37;100902.13;;;7.25;70.87
56400;BME280;42298;53.638;9.876;2022-12-07T10:19:51;100868.22;;;7.16;70.86
56400;BME280;42298;53.638;9.876;2022-12-07T10:22:17;100902.88;;;7.35;70.58
56400;BME280;42298;53.638;9.876;2022-12-07T10:24:44;100866.56;;;7.20;70.36
56400;BME280;42298;53.638;9.876;2022-12-07T10:27:20;100873.34;;;7.27;70.10
56400;BME280;42298;53.638;9.876;2022-12-07T10:29:50;100894.13;;;7.33;70.45
56400;BME280;42298;53.638;9.876;2022-12-07T10:34:42;100876.34;;;7.31;70.08
56400;BME280;42298;53.638;9.876;2022-12-07T10:39:46;100895.38;;;7.51;70.18
56400;BME280;42298;53.638;9.876;2022-12-07T10:44:45;100866.22;;;7.31;69.56
56400;BME280;42298;53.638;9.876;2022-12-07T10:47:24;100890.97;;;7.55;69.14
56400;BME280;42298;53.638;9.876;2022-12-07T10:50:01;100894.19;;;7.62;69.55
56400;BME280;42298;53.638;9.876;2022-12-07T10:52:55;100881.84;;;7.64;68.39
56400;BME280;42298;53.638;9.876;2022-12-07T10:55:48;100849.88;;;7.50;68.75
56400;BME280;42298;53.638;9.876;2022-12-07T11:01:35;100873.72;;;7.83;68.08
56400;BME280;42298;53.638;9.876;2022-12-07T11:06:39;100870.41;;;7.86;68.20
56400;BME280;42298;53.638;9.876;2022-12-07T11:12:05;100879.41;;;7.92;66.94
56400;BME280;42298;53.638;9.876;2022-12-07T11:14:41;100871.47;;;7.90;66.68
56400;BME280;42298;53.638;9.876;2022-12-07T11:20:29;100878.28;;;7.93;66.40
56400;BME280;42298;53.638;9.876;2022-12-07T11:23:13;100875.56;;;7.93;66.52
56400;BME280;42298;53.638;9.876;2022-12-07T11:28:23;100863.81;;;7.87;66.72
56400;BME280;42298;53.638;9.876;2022-12-07T11:38:58;100851.41;;;7.95;66.66
56400;BME280;42298;53.638;9.876;2022-12-07T11:41:31;100854.91;;;8.00;65.69
56400;BME280;42298;53.638;9.876;2022-12-07T11:44:06;100857.91;;;8.04;65.53
56400;BME280;42298;53.638;9.876;2022-12-07T11:46:50;100845.78;;;8.10;65.78
56400;BME280;42298;53.638;9.876;2022-12-07T11:51:59;100855.34;;;8.12;65.34
56400;BME280;42298;53.638;9.876;2022-12-07T11:54:32;100803.25;;;7.83;65.74
56400;BME280;42298;53.638;9.876;2022-12-07T11:57:04;100828.19;;;8.11;65.39
56400;BME280;42298;53.638;9.876;2022-12-07T11:59:40;100832.34;;;8.08;64.78
56400;BME280;42298;53.638;9.876;2022-12-07T12:02:20;100847.06;;;8.17;64.23
56400;BME280;42298;53.638;9.876;2022-12-07T12:05:05;100830.19;;;8.05;63.88
56400;BME280;42298;53.638;9.876;2022-12-07T12:07:33;100847.66;;;8.14;63.95
56400;BME280;42298;53.638;9.876;2022-12-07T12:10:06;100842.66;;;8.16;63.95
56400;BME280;42298;53.638;9.876;2022-12-07T12:18:22;100858.84;;;8.18;62.44
56400;BME280;42298;53.638;9.876;2022-12-07T12:21:12;100836.00;;;7.99;62.30
56400;BME280;42298;53.638;9.876;2022-12-07T12:26:26;100798.47;;;7.70;63.35
56400;BME280;42298;53.638;9.876;2022-12-07T12:29:00;100835.47;;;7.97;62.39
56400;BME280;42298;53.638;9.876;2022-12-07T12:33:55;100797.81;;;7.78;63.51
56400;BME280;42298;53.638;9.876;2022-12-07T12:36:26;100840.00;;;8.11;63.31
56400;BME280;42298;53.638;9.876;2022-12-07T12:49:33;100801.63;;;7.82;61.58
56400;BME280;42298;53.638;9.876;2022-12-07T12:57:34;100831.06;;;8.01;62.74
56400;BME280;42298;53.638;9.876;2022-12-07T13:00:09;100814.81;;;8.04;62.41
56400;BME280;42298;53.638;9.876;2022-12-07T13:02:56;100834.72;;;8.15;61.78
56400;BME280;42298;53.638;9.876;2022-12-07T13:05:29;100824.16;;;8.03;61.79
56400;BME280;42298;53.638;9.876;2022-12-07T13:08:01;100845.38;;;8.21;60.86
56400;BME280;42298;53.638;9.876;2022-12-07T13:13:00;100823.03;;;8.04;59.82
56400;BME280;42298;53.638;9.876;2022-12-07T13:15:52;100834.44;;;8.16;58.62
56400;BME280;42298;53.638;9.876;2022-12-07T13:23:39;100829.81;;;8.12;55.78
56400;BME280;42298;53.638;9.876;2022-12-07T13:26:22;100831.56;;;8.03;56.37
56400;BME280;42298;53.638;9.876;2022-12-07T13:29:11;100852.50;;;8.22;57.21
56400;BME280;42298;53.638;9.876;2022-12-07T13:31:56;100837.53;;;8.10;55.62
56400;BME280;42298;53.638;9.876;2022-12-07T13:34:36;100842.66;;;8.16;54.55
56400;BME280;42298;53.638;9.876;2022-12-07T13:37:14;100849.19;;;8.25;55.95
56400;BME280;42298;53.638;9.876;2022-12-07T13:39:56;100848.97;;;8.17;54.25
56400;BME280;42298;53.638;9.876;2022-12-07T13:42:25;100848.81;;;8.08;54.83
56400;BME280;42298;53.638;9.876;2022-12-07T13:44:55;100851.13;;;7.96;53.14
56400;BME280;42298;53.638;9.876;2022-12-07T13:49:54;100800.22;;;7.61;54.56
56400;BME280;42298;53.638;9.876;2022-12-07T13:52:22;100809.72;;;7.69;54.39
56400;BME280;42298;53.638;9.876;2022-12-07T13:55:19;100853.88;;;7.96;55.12
56400;BME280;42298;53.638;9.876;2022-12-07T13:57:46;100823.59;;;7.77;55.24
56400;BME280;42298;53.638;9.876;2022-12-07T14:00:30;100803.75;;;7.62;54.56
56400;BME280;42298;53.638;9.876;2022-12-07T14:03:01;100858.28;;;7.92;55.01
56400;BME280;42298;53.638;9.876;2022-12-07T14:05:29;100849.91;;;7.78;52.99
56400;BME280;42298;53.638;9.876;2022-12-07T14:13:31;100853.50;;;7.74;53.52
56400;BME280;42298;53.638;9.876;2022-12-07T14:16:01;100821.59;;;7.59;53.70
56400;BME280;42298;53.638;9.876;2022-12-07T14:18:28;100829.22;;;7.62;54.00
56400;BME280;42298;53.638;9.876;2022-12-07T14:21:26;100833.81;;;7.72;54.08
56400;BME280;42298;53.638;9.876;2022-12-07T14:24:10;100844.78;;;7.72;54.90
56400;BME280;42298;53.638;9.876;2022-12-07T14:26:38;100803.16;;;7.36;54.45
56400;BME280;42298;53.638;9.876;2022-12-07T14:31:58;100847.72;;;7.47;55.82
56400;BME280;42298;53.638;9.876;2022-12-07T14:34:24;100803.91;;;7.13;56.08
56400;BME280;42298;53.638;9.876;2022-12-07T14:36:50;100850.56;;;7.32;55.38
56400;BME280;42298;53.638;9.876;2022-12-07T14:39:15;100846.78;;;7.28;56.04
56400;BME280;42298;53.638;9.876;2022-12-07T14:41:41;100834.28;;;7.17;56.23
56400;BME280;42298;53.638;9.876;2022-12-07T14:44:15;100798.34;;;6.90;55.49
56400;BME280;42298;53.638;9.876;2022-12-07T14:46:42;100829.19;;;7.00;55.13
56400;BME280;42298;53.638;9.876;2022-12-07T14:49:07;100828.97;;;6.92;55.12